Time;durP1;ratioP1;P1;durP2;ratioP2;P2;SDS_P1;SDS_P2;PMS_P1;PMS_P2;Temp;Humidity;BMP_temperature;BMP_pressure;BME280_temperature;BME280_humidity;BME280_pressure;Samples;Min_cycle;Max_cycle;Signal;HPM_P1;HPM_P2
2023/12/06 00:00:55;;;;;;;;;;;;;;;1.26;86.45;99376.56;4428915;32;33633;-83
2023/12/06 00:03:23;;;;;;;;;;;;;;;0.79;90.30;99381.56;4416002;32;33953;-83
2023/12/06 00:05:52;;;;;;;;;;;;;;;1.11;89.07;99377.09;4423857;32;33697;-84
2023/12/06 00:08:21;;;;;;;;;;;;;;;1.24;89.22;99371.41;4429677;32;34203;-85
2023/12/06 00:10:49;;;;;;;;;;;;;;;0.94;89.09;99378.47;4423105;32;33461;-84
2023/12/06 00:13:19;;;;;;;;;;;;;;;1.27;88.44;99376.59;4423810;32;33915;-83
2023/12/06 00:15:47;;;;;;;;;;;;;;;1.22;90.29;99369.66;4425389;32;32809;-84
2023/12/06 00:18:16;;;;;;;;;;;;;;;1.17;88.57;99364.47;4426710;32;33438;-83
2023/12/06 00:20:45;;;;;;;;;;;;;;;1.48;88.84;99365.03;4425196;32;34623;-84
2023/12/06 00:23:14;;;;;;;;;;;;;;;1.26;88.81;99369.75;4422157;32;34705;-83
2023/12/06 00:25:43;;;;;;;;;;;;;;;0.98;88.46;99370.06;4425823;32;33393;-83
2023/12/06 00:28:11;;;;;;;;;;;;;;;1.14;90.71;99366.97;4425935;32;33805;-82
2023/12/06 00:30:41;;;;;;;;;;;;;;;0.79;90.08;99364.56;4427180;32;35024;-82
2023/12/06 00:33:09;;;;;;;;;;;;;;;0.88;90.60;99368.16;4424738;32;33925;-82
2023/12/06 00:35:38;;;;;;;;;;;;;;;1.06;89.24;99358.28;4432123;32;32935;-82
2023/12/06 00:38:06;;;;;;;;;;;;;;;0.52;92.74;99366.53;4437037;32;33412;-84
2023/12/06 00:40:35;;;;;;;;;;;;;;;1.00;91.10;99355.63;4431889;32;34891;-83
2023/12/06 00:43:05;;;;;;;;;;;;;;;0.81;90.87;99351.84;4431872;32;33479;-84
2023/12/06 00:45:33;;;;;;;;;;;;;;;0.78;91.38;99350.06;4429940;32;32900;-83
2023/12/06 00:48:04;;;;;;;;;;;;;;;1.05;89.85;99348.91;4431698;32;34482;-82
2023/12/06 00:50:32;;;;;;;;;;;;;;;1.66;87.04;99339.78;4436194;32;33694;-83
2023/12/06 00:53:01;;;;;;;;;;;;;;;1.43;88.70;99341.97;4431777;32;33867;-83
2023/12/06 00:55:29;;;;;;;;;;;;;;;1.34;87.97;99346.03;4431649;32;33223;-82
2023/12/06 00:57:58;;;;;;;;;;;;;;;0.84;91.42;99345.06;4429894;32;34781;-81
2023/12/06 01:00:27;;;;;;;;;;;;;;;1.62;87.43;99344.81;4428280;32;33776;-83
2023/12/06 01:02:56;;;;;;;;;;;;;;;1.86;86.57;99345.25;4424676;32;34722;-82
2023/12/06 01:05:25;;;;;;;;;;;;;;;1.26;87.93;99346.75;4421286;32;34297;-82
2023/12/06 01:07:54;;;;;;;;;;;;;;;1.02;89.29;99342.03;4421247;32;33753;-82
2023/12/06 01:10:23;;;;;;;;;;;;;;;1.39;89.38;99347.84;4427310;32;33583;-82
2023/12/06 01:12:52;;;;;;;;;;;;;;;1.62;87.96;99342.25;4423524;32;33673;-81
2023/12/06 01:15:20;;;;;;;;;;;;;;;1.43;87.52;99341.09;4428975;32;33652;-82
2023/12/06 01:17:49;;;;;;;;;;;;;;;1.26;88.36;99341.66;4422016;32;33450;-82
2023/12/06 01:20:17;;;;;;;;;;;;;;;1.51;88.51;99331.88;4428380;32;33734;-83
2023/12/06 01:22:47;;;;;;;;;;;;;;;1.66;86.71;99332.13;4428530;32;33859;-82
2023/12/06 01:25:15;;;;;;;;;;;;;;;1.90;86.73;99333.34;4423872;32;33587;-83
2023/12/06 01:27:44;;;;;;;;;;;;;;;2.08;84.46;99333.66;4426549;32;33472;-82
2023/12/06 01:30:13;;;;;;;;;;;;;;;1.73;85.47;99327.12;4428102;32;33847;-82
2023/12/06 01:32:41;;;;;;;;;;;;;;;2.47;81.99;99319.69;4425935;32;34158;-84
2023/12/06 01:35:10;;;;;;;;;;;;;;;1.68;85.61;99315.09;4420946;32;32959;-83
2023/12/06 01:37:38;;;;;;;;;;;;;;;2.13;84.36;99314.09;4426320;32;34026;-83
2023/12/06 01:40:09;;;;;;;;;;;;;;;1.70;86.07;99318.56;4427101;32;34314;-83
2023/12/06 01:42:38;;;;;;;;;;;;;;;2.22;83.57;99312.50;4424197;32;34519;-83
2023/12/06 01:45:07;;;;;;;;;;;;;;;2.04;85.54;99313.13;4431229;32;33333;-83
2023/12/06 01:47:35;;;;;;;;;;;;;;;1.96;84.22;99305.31;4424973;32;33981;-83
2023/12/06 01:50:04;;;;;;;;;;;;;;;2.34;83.69;99308.44;4426894;32;34263;-83
2023/12/06 01:52:34;;;;;;;;;;;;;;;2.47;82.60;99299.22;4428974;32;33555;-83
2023/12/06 01:55:03;;;;;;;;;;;;;;;2.05;83.38;99305.44;4427051;32;32938;-83
2023/12/06 01:57:33;;;;;;;;;;;;;;;2.16;83.20;99305.63;4426365;32;33746;-83
2023/12/06 02:00:03;;;;;;;;;;;;;;;2.25;83.47;99308.31;4424422;32;33679;-83
2023/12/06 02:02:38;;;;;;;;;;;;;;;2.21;82.63;99301.41;4425717;32;34297;-83
2023/12/06 02:05:07;;;;;;;;;;;;;;;2.40;81.58;99294.84;4424893;32;33998;-83
2023/12/06 02:07:36;;;;;;;;;;;;;;;2.05;84.03;99295.22;4434393;32;34612;-83
2023/12/06 02:10:04;;;;;;;;;;;;;;;2.62;81.79;99292.56;4428335;32;34690;-84
2023/12/06 02:12:35;;;;;;;;;;;;;;;2.72;81.11;99286.72;4424326;32;34070;-83
2023/12/06 02:15:06;;;;;;;;;;;;;;;2.96;80.15;99289.56;4420297;32;33541;-83
2023/12/06 02:17:37;;;;;;;;;;;;;;;3.26;77.98;99283.00;4433271;32;34435;-83
2023/12/06 02:20:07;;;;;;;;;;;;;;;3.19;77.43;99289.81;4425916;32;35317;-83
2023/12/06 02:22:36;;;;;;;;;;;;;;;3.08;78.40;99283.69;4430043;32;33209;-84
2023/12/06 02:25:05;;;;;;;;;;;;;;;3.42;76.94;99286.59;4424347;32;32913;-84
2023/12/06 02:27:34;;;;;;;;;;;;;;;2.74;79.42;99287.59;4420210;32;32205;-83
2023/12/06 02:30:03;;;;;;;;;;;;;;;2.33;82.87;99282.81;4422469;32;34248;-85
2023/12/06 02:32:32;;;;;;;;;;;;;;;3.03;79.48;99282.78;4416423;32;33757;-84
2023/12/06 02:35:00;;;;;;;;;;;;;;;2.40;81.96;99283.75;4422093;32;32907;-84
2023/12/06 02:37:29;;;;;;;;;;;;;;;2.65;80.77;99279.78;4419363;32;34137;-84
2023/12/06 02:39:58;;;;;;;;;;;;;;;2.01;83.83;99279.81;4431935;32;33207;-84
2023/12/06 02:42:26;;;;;;;;;;;;;;;2.90;79.98;99276.69;4430377;32;34063;-83
2023/12/06 02:44:56;;;;;;;;;;;;;;;2.54;81.12;99270.28;4426972;32;32634;-84
2023/12/06 02:47:24;;;;;;;;;;;;;;;2.83;80.18;99274.00;4422736;32;33574;-84
2023/12/06 02:49:54;;;;;;;;;;;;;;;2.51;80.98;99267.69;4429784;32;34967;-83
2023/12/06 02:52:22;;;;;;;;;;;;;;;2.84;79.95;99270.63;4426762;32;34724;-85
2023/12/06 02:54:51;;;;;;;;;;;;;;;3.05;80.02;99277.69;4421387;32;32696;-84
2023/12/06 02:57:20;;;;;;;;;;;;;;;3.25;78.50;99276.19;4415901;32;34192;-84
2023/12/06 02:59:49;;;;;;;;;;;;;;;3.15;78.52;99274.38;4415877;32;33835;-84
2023/12/06 03:02:18;;;;;;;;;;;;;;;3.19;78.41;99269.28;4420522;32;33742;-87
2023/12/06 03:04:47;;;;;;;;;;;;;;;3.22;78.92;99271.03;4415780;32;33434;-84
2023/12/06 03:07:16;;;;;;;;;;;;;;;3.41;77.61;99270.34;4415513;32;33783;-84
2023/12/06 03:09:44;;;;;;;;;;;;;;;3.40;77.88;99267.75;4416664;32;33715;-84
2023/12/06 03:12:13;;;;;;;;;;;;;;;2.82;79.49;99260.34;4435737;32;34023;-84
2023/12/06 03:14:41;;;;;;;;;;;;;;;3.30;78.40;99263.41;4430726;32;33485;-85
2023/12/06 03:17:10;;;;;;;;;;;;;;;3.19;78.38;99266.72;4430986;32;34822;-83
2023/12/06 03:19:40;;;;;;;;;;;;;;;3.33;78.44;99271.97;4430826;32;34906;-83
2023/12/06 03:22:08;;;;;;;;;;;;;;;3.37;77.70;99271.16;4433973;32;34095;-85
2023/12/06 03:24:37;;;;;;;;;;;;;;;2.89;79.94;99269.81;4426100;32;34421;-84
2023/12/06 03:27:06;;;;;;;;;;;;;;;3.23;78.80;99272.72;4428635;32;34025;-84
2023/12/06 03:29:34;;;;;;;;;;;;;;;3.40;78.06;99272.88;4428065;32;33698;-84
2023/12/06 03:32:02;;;;;;;;;;;;;;;3.45;77.00;99272.94;4427513;32;34419;-84
2023/12/06 03:34:31;;;;;;;;;;;;;;;2.85;80.83;99272.34;4430615;32;33120;-84
2023/12/06 03:37:02;;;;;;;;;;;;;;;3.20;78.84;99276.13;4428929;32;34099;-84
2023/12/06 03:39:32;;;;;;;;;;;;;;;3.14;78.02;99276.09;4418973;32;35120;-84
2023/12/06 03:42:03;;;;;;;;;;;;;;;3.06;79.19;99269.16;4428243;32;34698;-84
2023/12/06 03:44:31;;;;;;;;;;;;;;;2.63;80.72;99266.97;4428208;32;33260;-84
2023/12/06 03:47:00;;;;;;;;;;;;;;;2.86;80.93;99266.38;4423440;32;33892;-84
2023/12/06 03:49:28;;;;;;;;;;;;;;;2.33;84.30;99267.47;4423433;32;34479;-84
2023/12/06 03:51:57;;;;;;;;;;;;;;;2.64;81.65;99272.97;4426542;32;34156;-84
2023/12/06 03:54:27;;;;;;;;;;;;;;;2.68;82.10;99264.47;4426222;32;32425;-84
2023/12/06 03:56:57;;;;;;;;;;;;;;;2.86;81.13;99266.38;4419659;32;33890;-84
2023/12/06 03:59:26;;;;;;;;;;;;;;;2.66;82.24;99264.47;4429789;32;34844;-86
2023/12/06 04:01:54;;;;;;;;;;;;;;;2.86;81.29;99262.13;4428655;32;32992;-85
2023/12/06 04:04:23;;;;;;;;;;;;;;;2.58;82.40;99262.63;4419964;32;33742;-84
2023/12/06 04:06:51;;;;;;;;;;;;;;;3.00;80.35;99264.84;4426344;32;34596;-84
2023/12/06 04:09:20;;;;;;;;;;;;;;;3.02;79.64;99265.72;4422580;32;34622;-84
2023/12/06 04:11:51;;;;;;;;;;;;;;;3.28;79.55;99270.22;4431146;32;34895;-84
2023/12/06 04:14:19;;;;;;;;;;;;;;;3.27;78.63;99271.94;4425526;32;33390;-84
2023/12/06 04:16:49;;;;;;;;;;;;;;;3.24;79.11;99263.34;4430720;32;33498;-84
2023/12/06 04:19:18;;;;;;;;;;;;;;;3.44;78.29;99272.09;4433973;32;34189;-85
2023/12/06 04:21:48;;;;;;;;;;;;;;;3.55;77.85;99270.47;4427698;32;34292;-85
2023/12/06 04:24:17;;;;;;;;;;;;;;;3.80;76.70;99273.22;4425268;32;32257;-84
2023/12/06 04:26:45;;;;;;;;;;;;;;;3.72;77.30;99269.72;4416765;32;33585;-86
2023/12/06 04:29:16;;;;;;;;;;;;;;;4.07;74.46;99265.69;4431482;32;35119;-87
2023/12/06 04:31:45;;;;;;;;;;;;;;;4.02;74.35;99259.69;4418103;32;33780;-84
2023/12/06 04:34:14;;;;;;;;;;;;;;;3.69;76.94;99265.44;4417134;32;33059;-85
2023/12/06 04:36:42;;;;;;;;;;;;;;;3.93;75.18;99263.91;4416643;32;34369;-85
2023/12/06 04:39:11;;;;;;;;;;;;;;;3.98;74.98;99254.53;4421385;32;34135;-85
2023/12/06 04:41:39;;;;;;;;;;;;;;;4.04;74.75;99254.56;4428101;32;33703;-87
2023/12/06 04:44:08;;;;;;;;;;;;;;;3.97;74.96;99263.09;4431681;32;32460;-85
2023/12/06 04:46:38;;;;;;;;;;;;;;;3.85;75.65;99263.84;4416942;32;33685;-85
2023/12/06 04:49:06;;;;;;;;;;;;;;;3.92;75.38;99254.50;4428706;32;32961;-85
2023/12/06 04:51:35;;;;;;;;;;;;;;;3.89;74.69;99255.34;4436789;32;34132;-86
2023/12/06 04:54:03;;;;;;;;;;;;;;;4.11;73.52;99251.19;4427787;32;32872;-85
2023/12/06 04:56:32;;;;;;;;;;;;;;;4.16;73.18;99248.66;4429647;32;34097;-85
2023/12/06 04:59:00;;;;;;;;;;;;;;;4.00;73.96;99245.13;4424200;32;34074;-86
2023/12/06 05:01:29;;;;;;;;;;;;;;;4.01;73.63;99241.69;4435211;32;33860;-86
2023/12/06 05:04:00;;;;;;;;;;;;;;;3.99;73.84;99251.12;4426321;32;32979;-85
2023/12/06 05:06:28;;;;;;;;;;;;;;;4.08;73.58;99246.03;4422014;32;33551;-86
2023/12/06 05:08:57;;;;;;;;;;;;;;;3.87;74.04;99249.34;4425655;32;33648;-86
2023/12/06 05:11:28;;;;;;;;;;;;;;;3.89;74.22;99241.63;4425663;32;34477;-86
2023/12/06 05:13:57;;;;;;;;;;;;;;;3.98;74.04;99244.25;4423132;32;33215;-87
2023/12/06 05:16:25;;;;;;;;;;;;;;;3.97;73.68;99243.41;4423821;32;33792;-87
2023/12/06 05:18:54;;;;;;;;;;;;;;;3.81;74.43;99242.44;4418863;32;33843;-87
2023/12/06 05:21:24;;;;;;;;;;;;;;;3.81;74.74;99236.44;4429493;32;33995;-87
2023/12/06 05:23:52;;;;;;;;;;;;;;;3.64;75.89;99247.44;4421139;32;33013;-87
2023/12/06 05:26:22;;;;;;;;;;;;;;;3.77;75.57;99253.53;4419591;32;34877;-89
2023/12/06 05:28:51;;;;;;;;;;;;;;;3.85;75.23;99239.03;4428355;32;33486;-87
2023/12/06 05:31:19;;;;;;;;;;;;;;;3.82;74.87;99243.31;4425057;32;34022;-87
2023/12/06 05:33:49;;;;;;;;;;;;;;;3.84;75.26;99239.91;4430111;32;32778;-87
2023/12/06 05:36:18;;;;;;;;;;;;;;;3.83;75.07;99242.44;4429633;32;33887;-87
2023/12/06 05:38:48;;;;;;;;;;;;;;;3.73;76.17;99250.94;4431222;32;33679;-87
2023/12/06 05:41:16;;;;;;;;;;;;;;;3.58;76.49;99257.66;4427273;32;34301;-87
2023/12/06 05:43:45;;;;;;;;;;;;;;;3.76;75.42;99253.53;4424632;32;32854;-88
2023/12/06 05:46:21;;;;;;;;;;;;;;;3.99;74.85;99256.25;4430042;32;33835;-87
2023/12/06 05:48:51;;;;;;;;;;;;;;;3.93;74.71;99256.19;4430156;32;32879;-87
2023/12/06 05:51:30;;;;;;;;;;;;;;;4.14;74.16;99258.06;4417926;32;34299;-88
2023/12/06 05:54:05;;;;;;;;;;;;;;;3.99;74.95;99246.84;4420981;32;33742;-89
2023/12/06 05:56:40;;;;;;;;;;;;;;;4.00;75.00;99245.97;4423723;32;34753;-90
2023/12/06 05:59:13;;;;;;;;;;;;;;;4.13;74.83;99246.03;4425829;32;35009;-87
2023/12/06 06:01:45;;;;;;;;;;;;;;;4.15;74.18;99237.50;4417346;32;33574;-87
2023/12/06 06:04:17;;;;;;;;;;;;;;;4.01;75.46;99239.13;4420057;32;33758;-87
2023/12/06 06:06:46;;;;;;;;;;;;;;;4.03;75.04;99245.13;4420186;32;34219;-88
2023/12/06 06:09:30;;;;;;;;;;;;;;;4.12;74.65;99241.78;4411706;32;38242;-87
2023/12/06 06:11:59;;;;;;;;;;;;;;;4.03;75.11;99245.13;4424562;32;34380;-87
2023/12/06 06:14:28;;;;;;;;;;;;;;;4.03;75.34;99248.56;4421397;32;34102;-87
2023/12/06 06:16:56;;;;;;;;;;;;;;;4.10;74.92;99252.03;4422084;32;34785;-87
2023/12/06 06:19:30;;;;;;;;;;;;;;;3.96;75.12;99258.78;4419210;32;34553;-87
2023/12/06 06:21:59;;;;;;;;;;;;;;;4.08;75.11;99261.41;4426776;32;33687;-87
2023/12/06 06:24:28;;;;;;;;;;;;;;;4.18;74.53;99252.94;4434196;32;33368;-88
2023/12/06 06:26:59;;;;;;;;;;;;;;;4.05;74.85;99256.28;4422210;32;34585;-87
2023/12/06 06:29:28;;;;;;;;;;;;;;;4.16;74.28;99254.66;4427261;32;34222;-87
2023/12/06 06:32:01;;;;;;;;;;;;;;;4.20;73.98;99258.91;4430965;32;34274;-87
2023/12/06 06:34:29;;;;;;;;;;;;;;;4.16;74.42;99264.06;4433319;32;33051;-88
2023/12/06 06:37:01;;;;;;;;;;;;;;;4.11;74.97;99271.72;4424208;32;34037;-87
2023/12/06 06:39:31;;;;;;;;;;;;;;;4.27;73.85;99270.09;4429385;32;33992;-87
2023/12/06 06:42:01;;;;;;;;;;;;;;;4.11;74.62;99269.16;4430958;32;34491;-87
2023/12/06 06:44:30;;;;;;;;;;;;;;;4.24;73.74;99268.38;4435320;32;33626;-87
2023/12/06 06:46:59;;;;;;;;;;;;;;;4.16;74.34;99264.91;4426378;32;33712;-87
2023/12/06 06:49:28;;;;;;;;;;;;;;;4.14;74.42;99274.31;4428297;32;33889;-87
2023/12/06 06:51:56;;;;;;;;;;;;;;;4.05;74.94;99267.41;4424883;32;33613;-87
2023/12/06 06:54:27;;;;;;;;;;;;;;;4.15;74.41;99268.31;4432585;32;31513;-90
2023/12/06 06:56:56;;;;;;;;;;;;;;;4.21;74.19;99272.66;4434217;32;33475;-88
2023/12/06 06:59:26;;;;;;;;;;;;;;;4.04;74.91;99273.38;4429601;32;34822;-87
2023/12/06 07:01:55;;;;;;;;;;;;;;;4.12;75.04;99277.72;4429424;32;33442;-88
2023/12/06 07:04:23;;;;;;;;;;;;;;;4.11;75.11;99282.00;4428326;32;33669;-87
2023/12/06 07:06:52;;;;;;;;;;;;;;;4.16;74.83;99275.19;4435428;32;33368;-88
2023/12/06 07:09:21;;;;;;;;;;;;;;;4.16;74.94;99272.62;4430361;32;34009;-87
2023/12/06 07:11:49;;;;;;;;;;;;;;;4.34;74.07;99278.69;4430558;32;33203;-87
2023/12/06 07:14:17;;;;;;;;;;;;;;;4.25;73.97;99274.34;4430992;32;32926;-88
2023/12/06 07:16:47;;;;;;;;;;;;;;;4.40;73.38;99287.31;4435493;32;33254;-87
2023/12/06 07:19:16;;;;;;;;;;;;;;;4.28;74.42;99282.94;4415101;32;34279;-88
2023/12/06 07:21:44;;;;;;;;;;;;;;;4.23;74.23;99282.06;4415571;32;34112;-88
2023/12/06 07:24:13;;;;;;;;;;;;;;;4.33;74.02;99285.53;4415632;32;32858;-88
2023/12/06 07:26:42;;;;;;;;;;;;;;;4.16;74.77;99288.00;4415774;32;33807;-87
2023/12/06 07:29:12;;;;;;;;;;;;;;;4.23;74.74;99297.47;4419860;32;34260;-88
2023/12/06 07:31:41;;;;;;;;;;;;;;;4.34;74.50;99299.25;4415288;32;33560;-88
2023/12/06 07:34:12;;;;;;;;;;;;;;;4.23;74.91;99294.91;4415212;32;32653;-88
2023/12/06 07:36:50;;;;;;;;;;;;;;;4.32;74.65;99295.78;4415627;32;34480;-88
2023/12/06 07:39:18;;;;;;;;;;;;;;;4.46;73.99;99284.75;4420037;32;33708;-88
2023/12/06 07:41:47;;;;;;;;;;;;;;;4.59;72.94;99283.09;4419538;32;33772;-88
2023/12/06 07:44:17;;;;;;;;;;;;;;;4.44;74.11;99283.87;4418195;32;32332;-88
2023/12/06 07:46:46;;;;;;;;;;;;;;;4.50;74.18;99272.78;4432678;32;33552;-88
2023/12/06 07:49:15;;;;;;;;;;;;;;;4.78;73.02;99278.03;4432369;32;34611;-88
2023/12/06 07:51:44;;;;;;;;;;;;;;;4.51;74.22;99282.19;4437470;32;33882;-88
2023/12/06 07:54:12;;;;;;;;;;;;;;;4.44;74.68;99294.16;4432734;32;33255;-88
2023/12/06 07:56:41;;;;;;;;;;;;;;;4.46;74.79;99294.16;4432556;32;34780;-88
2023/12/06 07:59:10;;;;;;;;;;;;;;;4.57;74.76;99287.38;4432461;32;33415;-89
2023/12/06 08:01:38;;;;;;;;;;;;;;;4.53;75.59;99295.91;4437308;32;33941;-88
2023/12/06 08:04:07;;;;;;;;;;;;;;;4.57;75.08;99292.50;4432437;32;33146;-89
2023/12/06 08:06:36;;;;;;;;;;;;;;;4.27;76.69;99300.91;4432586;32;34526;-90
2023/12/06 08:09:10;;;;;;;;;;;;;;;4.37;76.13;99294.97;4433900;32;34951;-89
2023/12/06 08:11:39;;;;;;;;;;;;;;;4.12;77.51;99293.13;4432912;32;33442;-89
2023/12/06 08:14:08;;;;;;;;;;;;;;;4.15;77.44;99293.13;4436984;32;33292;-90
2023/12/06 08:16:36;;;;;;;;;;;;;;;4.28;77.00;99288.09;4432254;32;34365;-88
2023/12/06 08:19:05;;;;;;;;;;;;;;;4.36;76.76;99298.41;4432166;32;33549;-89
2023/12/06 08:21:36;;;;;;;;;;;;;;;4.27;76.82;99291.47;4431904;32;34206;-89
2023/12/06 08:24:06;;;;;;;;;;;;;;;4.50;76.22;99290.78;4436819;32;33180;-89
2023/12/06 08:26:35;;;;;;;;;;;;;;;4.58;76.06;99285.66;4432434;32;33880;-89
2023/12/06 08:29:04;;;;;;;;;;;;;;;4.23;77.85;99289.78;4432349;32;34653;-89
2023/12/06 08:31:33;;;;;;;;;;;;;;;4.78;75.40;99281.44;4431944;32;34170;-89
2023/12/06 08:34:01;;;;;;;;;;;;;;;4.64;75.86;99285.66;4436919;32;33009;-88
2023/12/06 08:36:30;;;;;;;;;;;;;;;4.84;75.15;99288.34;4432076;32;33725;-89
2023/12/06 08:38:58;;;;;;;;;;;;;;;4.60;76.11;99295.09;4433296;32;34620;-89
2023/12/06 08:41:28;;;;;;;;;;;;;;;4.72;76.36;99288.31;4431061;32;34760;-88
2023/12/06 08:43:57;;;;;;;;;;;;;;;4.75;75.85;99299.44;4430248;32;31984;-88
2023/12/06 08:46:25;;;;;;;;;;;;;;;4.75;76.20;99290.88;4436176;32;33984;-89
2023/12/06 08:48:55;;;;;;;;;;;;;;;5.03;75.38;99296.97;4431874;32;34640;-90
2023/12/06 08:51:23;;;;;;;;;;;;;;;5.04;75.42;99285.81;4431350;32;34302;-89
2023/12/06 08:53:53;;;;;;;;;;;;;;;5.14;74.68;99290.13;4432135;32;33276;-89
2023/12/06 08:56:21;;;;;;;;;;;;;;;5.24;74.12;99289.31;4436741;32;34047;-88
2023/12/06 08:58:51;;;;;;;;;;;;;;;5.18;74.63;99286.72;4432143;32;34797;-89
2023/12/06 09:01:19;;;;;;;;;;;;;;;5.01;75.75;99291.81;4431745;32;34141;-90
2023/12/06 09:03:49;;;;;;;;;;;;;;;5.16;75.08;99283.28;4432332;32;33306;-89
2023/12/06 09:06:25;;;;;;;;;;;;;;;5.02;75.83;99288.38;4435045;32;34476;-90
2023/12/06 09:08:53;;;;;;;;;;;;;;;4.92;77.00;99289.22;4436608;32;33875;-89
2023/12/06 09:11:26;;;;;;;;;;;;;;;4.94;77.22;99286.66;4431644;32;34043;-89
2023/12/06 09:13:56;;;;;;;;;;;;;;;4.95;77.01;99298.66;4431736;32;34128;-89
2023/12/06 09:16:25;;;;;;;;;;;;;;;4.95;76.77;99288.34;4431916;32;34525;-89
2023/12/06 09:18:55;;;;;;;;;;;;;;;5.05;76.33;99288.41;4436922;32;34915;-89
2023/12/06 09:21:25;;;;;;;;;;;;;;;5.05;75.92;99290.97;4431791;32;34048;-89
2023/12/06 09:23:54;;;;;;;;;;;;;;;5.12;76.03;99286.69;4431886;32;32632;-89
2023/12/06 09:26:22;;;;;;;;;;;;;;;5.09;76.25;99282.41;4431819;32;33439;-89
2023/12/06 09:28:52;;;;;;;;;;;;;;;5.20;75.92;99285.00;4431728;32;34640;-89
2023/12/06 09:31:22;;;;;;;;;;;;;;;5.23;75.93;99289.31;4436882;32;34258;-89
2023/12/06 09:33:52;;;;;;;;;;;;;;;5.11;76.13;99285.84;4431985;32;32877;-89
2023/12/06 09:36:27;;;;;;;;;;;;;;;4.49;78.16;99289.91;4431844;32;33476;-90
2023/12/06 09:39:06;;;;;;;;;;;;;;;4.83;77.70;99284.03;4432052;32;34005;-90
2023/12/06 09:41:35;;;;;;;;;;;;;;;4.09;79.79;99281.12;4435333;32;34524;-90
2023/12/06 09:44:13;;;;;;;;;;;;;;;4.11;80.39;99286.25;4436474;32;33418;-90
2023/12/06 09:46:43;;;;;;;;;;;;;;;3.69;83.26;99280.81;4431672;32;33671;-91
2023/12/06 09:49:12;;;;;;;;;;;;;;;3.47;82.71;99278.94;4429432;32;36629;-90
2023/12/06 09:51:43;;;;;;;;;;;;;;;3.93;80.80;99279.28;4419928;32;34368;-90
2023/12/06 09:54:14;;;;;;;;;;;;;;;4.34;79.03;99273.56;4429485;32;32962;-89
2023/12/06 09:56:44;;;;;;;;;;;;;;;4.52;78.70;99267.63;4431393;32;33286;-90
2023/12/06 09:59:15;;;;;;;;;;;;;;;4.73;76.80;99267.72;4431833;32;34098;-90
2023/12/06 10:01:50;;;;;;;;;;;;;;;4.54;77.53;99269.34;4429464;32;34351;-91
2023/12/06 10:04:34;;;;;;;;;;;;;;;4.76;76.47;99274.59;4430418;32;32831;-91
2023/12/06 10:07:14;;;;;;;;;;;;;;;4.65;76.75;99280.56;4434125;32;34829;-91
2023/12/06 10:10:09;;;;;;;;;;;;;;;4.48;77.73;99280.47;4433863;32;36540;-91
2023/12/06 10:13:10;;;;;;;;;;;;;;;4.72;76.98;99283.16;4433946;32;34893;-90
2023/12/06 10:15:51;;;;;;;;;;;;;;;4.81;76.22;99286.63;4430432;32;33283;-91
2023/12/06 10:18:48;;;;;;;;;;;;;;;4.75;76.36;99283.16;4430561;32;35408;-91
2023/12/06 10:21:56;;;;;;;;;;;;;;;4.80;76.59;99286.59;4430717;32;34354;-90
2023/12/06 10:24:45;;;;;;;;;;;;;;;4.88;76.49;99284.91;4430794;32;34064;-90
2023/12/06 10:27:13;;;;;;;;;;;;;;;4.45;78.73;99289.88;4431361;32;33230;-91
2023/12/06 10:29:42;;;;;;;;;;;;;;;4.65;78.24;99284.84;4436284;32;33414;-90
2023/12/06 10:32:11;;;;;;;;;;;;;;;4.44;78.43;99283.03;4431372;32;34355;-89
2023/12/06 10:34:40;;;;;;;;;;;;;;;4.76;77.87;99283.19;4431313;32;34536;-89
2023/12/06 10:37:09;;;;;;;;;;;;;;;4.84;77.77;99278.91;4431202;32;33363;-90
2023/12/06 10:39:38;;;;;;;;;;;;;;;4.83;77.58;99278.91;4431346;32;34546;-90
2023/12/06 10:42:09;;;;;;;;;;;;;;;4.99;77.11;99280.66;4436212;32;33942;-90
2023/12/06 10:44:37;;;;;;;;;;;;;;;5.20;76.13;99281.59;4431399;32;32985;-90
2023/12/06 10:47:05;;;;;;;;;;;;;;;5.10;76.92;99281.56;4431439;32;33510;-89
2023/12/06 10:49:38;;;;;;;;;;;;;;;5.18;76.36;99273.84;4432702;32;33561;-90
2023/12/06 10:52:07;;;;;;;;;;;;;;;4.89;77.38;99274.63;4436062;32;34716;-91
2023/12/06 10:54:37;;;;;;;;;;;;;;;5.06;75.92;99276.41;4431119;32;33862;-90
2023/12/06 10:57:05;;;;;;;;;;;;;;;5.11;76.05;99274.69;4431241;32;32792;-91
2023/12/06 10:59:34;;;;;;;;;;;;;;;5.16;75.47;99274.72;4423731;32;33510;-91
2023/12/06 11:02:03;;;;;;;;;;;;;;;5.12;75.52;99276.41;4424174;32;34183;-90
2023/12/06 11:04:32;;;;;;;;;;;;;;;5.05;75.71;99265.28;4427234;32;33395;-92
2023/12/06 11:07:05;;;;;;;;;;;;;;;5.02;75.95;99265.25;4423681;32;32184;-91
2023/12/06 11:09:40;;;;;;;;;;;;;;;5.14;76.40;99269.56;4431057;32;33972;-92
2023/12/06 11:12:12;;;;;;;;;;;;;;;5.22;75.48;99262.72;4434868;32;33144;-92
2023/12/06 11:14:59;;;;;;;;;;;;;;;5.09;76.52;99266.97;4429899;32;33522;-91
2023/12/06 11:17:41;;;;;;;;;;;;;;;4.60;77.87;99266.84;4428303;32;33454;-92
2023/12/06 11:20:36;;;;;;;;;;;;;;;5.06;76.60;99263.56;4425753;32;35120;-93
2023/12/06 11:23:25;;;;;;;;;;;;;;;5.00;76.63;99261.84;4421341;32;34463;-92
2023/12/06 11:26:32;;;;;;;;;;;;;;;5.22;75.66;99267.88;4420997;32;34419;-91
2023/12/06 11:30:10;;;;;;;;;;;;;;;5.39;75.19;99262.75;4427454;32;34534;-92
2023/12/06 11:57:25;;;;;;;;;;;;;;;5.54;73.90;99244.75;4306111;33;34759;-92
2023/12/06 12:00:56;;;;;;;;;;;;;;;5.70;73.84;99245.59;4312140;33;34074;-94
2023/12/06 12:04:09;;;;;;;;;;;;;;;5.88;73.13;99244.72;4257279;33;35485;-92
2023/12/06 12:11:20;;;;;;;;;;;;;;;5.51;73.90;99239.59;4330969;33;35367;-91
2023/12/06 13:40:41;;;;;;;;;;;;;;;4.78;75.67;99164.97;4164836;34;33189;-94
2023/12/06 13:43:09;;;;;;;;;;;;;;;4.75;75.63;99165.81;4168030;34;33881;-92
2023/12/06 13:45:39;;;;;;;;;;;;;;;4.88;75.71;99169.25;4184269;34;33899;-94
2023/12/06 13:48:08;;;;;;;;;;;;;;;5.14;74.06;99174.41;4223985;33;33315;-93
2023/12/06 13:50:36;;;;;;;;;;;;;;;5.07;74.63;99173.59;4270001;33;34121;-94
2023/12/06 13:53:05;;;;;;;;;;;;;;;4.83;75.25;99176.97;4286686;33;34198;-92
2023/12/06 13:55:33;;;;;;;;;;;;;;;5.07;74.52;99178.72;4301921;33;33416;-92
2023/12/06 13:58:03;;;;;;;;;;;;;;;4.87;74.72;99177.81;4296838;33;34502;-92
2023/12/06 14:00:32;;;;;;;;;;;;;;;4.84;75.56;99180.41;4297538;33;34519;-93
2023/12/06 14:03:01;;;;;;;;;;;;;;;4.74;75.39;99176.97;4297120;33;33984;-93
2023/12/06 14:05:31;;;;;;;;;;;;;;;4.87;75.26;99182.97;4294713;33;33516;-92
2023/12/06 14:08:00;;;;;;;;;;;;;;;4.85;75.60;99184.66;4300142;33;33159;-92
2023/12/06 14:10:29;;;;;;;;;;;;;;;4.96;75.16;99184.72;4288612;33;34851;-94
2023/12/06 14:12:57;;;;;;;;;;;;;;;4.79;76.15;99194.97;4292074;33;33987;-93
2023/12/06 14:15:27;;;;;;;;;;;;;;;5.07;74.86;99199.28;4296465;33;34449;-93
2023/12/06 14:17:57;;;;;;;;;;;;;;;5.03;74.58;99199.28;4311667;33;32219;-92
2023/12/06 14:20:26;;;;;;;;;;;;;;;4.98;75.36;99199.28;4295137;33;34633;-92
2023/12/06 14:22:58;;;;;;;;;;;;;;;4.89;75.16;99204.41;4297122;33;33717;-91
2023/12/06 14:25:28;;;;;;;;;;;;;;;4.89;74.96;99196.69;4308490;33;35004;-92
2023/12/06 14:28:02;;;;;;;;;;;;;;;5.15;74.42;99204.44;4297925;33;32833;-92
2023/12/06 14:30:33;;;;;;;;;;;;;;;4.69;75.76;99202.63;4299522;33;34207;-93
2023/12/06 14:33:01;;;;;;;;;;;;;;;4.37;77.71;99204.22;4295553;33;35412;-92
2023/12/06 14:35:32;;;;;;;;;;;;;;;4.83;75.57;99206.94;4295312;33;33676;-93
2023/12/06 14:38:01;;;;;;;;;;;;;;;4.89;75.19;99200.09;4296824;33;33580;-92
2023/12/06 14:40:30;;;;;;;;;;;;;;;4.92;74.90;99202.66;4300507;33;34450;-93
2023/12/06 14:42:59;;;;;;;;;;;;;;;5.01;74.47;99206.97;4297387;33;33647;-94
2023/12/06 14:45:29;;;;;;;;;;;;;;;5.13;73.67;99207.00;4307748;33;35447;-92
2023/12/06 14:48:00;;;;;;;;;;;;;;;5.29;72.92;99207.87;4297239;33;32537;-93
2023/12/06 14:50:28;;;;;;;;;;;;;;;4.86;74.73;99206.97;4295844;33;33931;-94
2023/12/06 14:53:03;;;;;;;;;;;;;;;4.94;75.09;99207.81;4301668;33;33789;-94
2023/12/06 14:55:47;;;;;;;;;;;;;;;5.07;74.53;99209.56;4297006;33;32997;-92
2023/12/06 14:58:18;;;;;;;;;;;;;;;5.24;73.33;99201.00;4297663;33;33549;-92
2023/12/06 15:00:49;;;;;;;;;;;;;;;5.17;73.84;99207.87;4306666;33;32608;-94
2023/12/06 15:03:20;;;;;;;;;;;;;;;4.98;74.73;99211.25;4307929;33;32608;-93
2023/12/06 15:05:51;;;;;;;;;;;;;;;4.95;75.00;99211.25;4273790;33;902481;-94
2023/12/06 15:08:23;;;;;;;;;;;;;;;5.23;73.69;99212.16;4307974;33;32468;-95
2023/12/06 15:10:52;;;;;;;;;;;;;;;4.78;75.24;99217.19;4307849;33;32352;-92
2023/12/06 15:13:20;;;;;;;;;;;;;;;5.06;74.05;99214.69;4296372;33;33945;-93